Time;durP1;ratioP1;P1;durP2;ratioP2;P2;SDS_P1;SDS_P2;PMS_P1;PMS_P2;Temp;Humidity;BMP_temperature;BMP_pressure;BME280_temperature;BME280_humidity;BME280_pressure;Samples;Min_cycle;Max_cycle;Signal;HPM_P1;HPM_P2
2022/03/19 00:00:49;;;;;;;13.85;8.10;;;10.60;60.10;;;;;;5133742;28;20035;-65
2022/03/19 00:03:15;;;;;;;13.13;7.82;;;10.50;60.10;;;;;;5133801;28;20106;-65
2022/03/19 00:05:40;;;;;;;14.75;7.70;;;10.60;60.30;;;;;;5133757;28;20023;-65
2022/03/19 00:08:06;;;;;;;14.13;7.90;;;10.60;60.40;;;;;;5133750;28;20031;-65
2022/03/19 00:10:32;;;;;;;11.68;7.97;;;10.60;60.30;;;;;;5133647;28;20041;-65
2022/03/19 00:13:00;;;;;;;13.35;8.38;;;10.60;60.40;;;;;;5133537;28;20048;-64
2022/03/19 00:15:26;;;;;;;13.27;8.38;;;10.60;60.50;;;;;;5133635;28;20032;-64
2022/03/19 00:17:54;;;;;;;14.65;9.00;;;10.60;60.40;;;;;;5133619;28;20035;-65
2022/03/19 00:20:21;;;;;;;13.80;8.48;;;10.50;60.60;;;;;;5133518;28;20016;-64
2022/03/19 00:22:47;;;;;;;15.50;8.70;;;10.50;60.70;;;;;;5133584;28;20019;-65
2022/03/19 00:25:12;;;;;;;16.60;8.90;;;10.50;60.90;;;;;;5133595;28;20102;-65
2022/03/19 00:27:40;;;;;;;14.82;9.43;;;10.50;61.00;;;;;;5133482;28;20026;-64
2022/03/19 00:30:07;;;;;;;13.73;9.05;;;10.40;61.30;;;;;;5133547;28;20026;-65
2022/03/19 00:32:33;;;;;;;16.02;9.02;;;10.40;61.60;;;;;;5133437;28;20023;-65
2022/03/19 00:34:59;;;;;;;14.93;9.07;;;10.40;61.60;;;;;;5133492;28;20079;-65
2022/03/19 00:37:24;;;;;;;16.42;9.00;;;10.30;61.90;;;;;;5132386;28;20034;-65
2022/03/19 00:39:50;;;;;;;17.70;9.95;;;10.30;62.30;;;;;;5133456;28;20028;-65
2022/03/19 00:42:16;;;;;;;15.93;9.60;;;10.30;62.50;;;;;;5133330;28;20085;-65
2022/03/19 00:44:42;;;;;;;15.85;9.57;;;10.20;63.20;;;;;;5133332;28;20051;-65
2022/03/19 00:47:08;;;;;;;18.58;10.60;;;10.20;63.60;;;;;;5133877;28;20012;-64
2022/03/19 00:49:34;;;;;;;18.20;10.35;;;10.20;63.40;;;;;;5137281;28;20032;-65
2022/03/19 00:51:59;;;;;;;20.08;10.75;;;10.30;63.70;;;;;;5136254;28;20035;-65
2022/03/19 00:54:25;;;;;;;17.55;9.95;;;10.30;63.70;;;;;;5137151;28;20028;-65
2022/03/19 00:56:50;;;;;;;16.83;9.93;;;10.30;64.70;;;;;;5136163;28;20059;-64
2022/03/19 00:59:16;;;;;;;19.90;10.43;;;10.20;64.00;;;;;;5135995;28;20038;-65
2022/03/19 01:01:42;;;;;;;16.73;10.05;;;10.30;64.10;;;;;;5136923;28;20043;-65
2022/03/19 01:04:07;;;;;;;16.70;9.85;;;10.30;64.00;;;;;;5136964;28;20108;-64
2022/03/19 01:06:33;;;;;;;18.77;10.40;;;10.20;64.50;;;;;;5118865;28;20055;-64
2022/03/19 01:08:58;;;;;;;18.38;10.25;;;10.20;64.90;;;;;;5118888;28;20024;-65
2022/03/19 01:11:24;;;;;;;18.00;9.75;;;10.10;65.90;;;;;;5136688;28;20052;-65
2022/03/19 01:13:54;;;;;;;17.42;9.52;;;10.10;65.90;;;;;;5135948;28;20050;-64
2022/03/19 01:16:20;;;;;;;18.85;9.75;;;10.00;66.10;;;;;;5136736;28;20020;-65
2022/03/19 01:18:46;;;;;;;16.85;10.13;;;10.00;66.40;;;;;;5136663;28;20028;-64
2022/03/19 01:21:12;;;;;;;17.15;10.00;;;10.00;66.00;;;;;;5136548;28;20075;-65
2022/03/19 01:23:38;;;;;;;14.68;9.48;;;10.00;67.10;;;;;;5136696;28;20027;-65
2022/03/19 01:26:03;;;;;;;19.50;10.00;;;9.90;66.40;;;;;;5135650;28;20024;-65
2022/03/19 01:28:29;;;;;;;16.40;9.10;;;9.90;66.40;;;;;;5136466;28;20024;-65
2022/03/19 01:30:55;;;;;;;19.17;9.70;;;9.90;66.30;;;;;;5136402;28;20028;-64
2022/03/19 01:33:20;;;;;;;20.10;10.43;;;9.90;66.50;;;;;;5136455;28;20032;-65
2022/03/19 01:35:46;;;;;;;18.50;10.27;;;9.80;66.60;;;;;;5135443;28;20032;-65
2022/03/19 01:38:11;;;;;;;17.20;9.55;;;9.80;66.80;;;;;;5136273;28;20034;-65
2022/03/19 01:40:37;;;;;;;17.35;9.95;;;9.70;66.90;;;;;;5136184;28;20032;-65
2022/03/19 01:43:03;;;;;;;19.55;9.32;;;9.70;66.90;;;;;;5136260;28;20020;-65
2022/03/19 01:45:29;;;;;;;15.43;9.27;;;9.70;66.80;;;;;;5136143;28;20038;-64
2022/03/19 01:47:55;;;;;;;18.40;10.13;;;9.80;66.70;;;;;;5135225;28;20035;-65
2022/03/19 01:50:23;;;;;;;17.85;9.55;;;9.70;66.80;;;;;;5135153;28;20053;-65
2022/03/19 01:52:49;;;;;;;18.17;9.27;;;9.70;66.70;;;;;;5136071;28;20030;-65
2022/03/19 01:55:18;;;;;;;16.33;9.05;;;9.70;66.80;;;;;;5136034;28;20031;-65
2022/03/19 01:57:45;;;;;;;19.13;9.60;;;9.70;67.00;;;;;;5135974;28;20022;-65
2022/03/19 02:00:16;;;;;;;17.13;9.07;;;9.60;67.30;;;;;;5135722;28;20027;-64
2022/03/19 02:02:47;;;;;;;16.85;8.98;;;9.50;67.70;;;;;;5134988;28;20015;-65
2022/03/19 02:05:14;;;;;;;16.35;9.20;;;9.50;67.90;;;;;;5135977;28;20456;-65
2022/03/19 02:07:44;;;;;;;17.52;9.25;;;9.50;67.70;;;;;;5135731;28;20511;-65
2022/03/19 02:10:11;;;;;;;17.42;8.73;;;9.50;67.50;;;;;;5135826;28;20026;-65
2022/03/19 02:12:38;;;;;;;19.30;8.50;;;9.60;67.30;;;;;;5135524;28;20058;-64
2022/03/19 02:15:05;;;;;;;15.52;9.45;;;9.60;67.40;;;;;;5135645;28;20032;-65
2022/03/19 02:17:31;;;;;;;14.77;8.63;;;9.60;67.30;;;;;;5135567;28;20031;-64
2022/03/19 02:19:57;;;;;;;16.45;8.57;;;9.60;67.40;;;;;;5134529;28;20038;-64
2022/03/19 02:22:26;;;;;;;17.10;9.00;;;9.50;67.40;;;;;;5135367;28;20036;-64
2022/03/19 02:27:37;;;;;;;14.43;8.40;;;9.60;67.00;;;;;;5135538;28;20027;-65
2022/03/19 02:30:05;;;;;;;17.63;8.88;;;9.60;67.00;;;;;;5135318;28;20011;-64
2022/03/19 02:32:31;;;;;;;14.43;8.77;;;9.60;67.20;;;;;;5135282;28;20505;-65
2022/03/19 02:34:56;;;;;;;15.57;8.63;;;9.60;67.00;;;;;;5134171;28;20058;-64
2022/03/19 02:37:22;;;;;;;15.77;8.70;;;9.60;66.90;;;;;;5135132;28;20031;-65
2022/03/19 02:39:48;;;;;;;16.20;8.15;;;9.50;67.20;;;;;;5135094;28;20027;-64
2022/03/19 02:42:19;;;;;;;17.85;8.63;;;9.50;67.50;;;;;;5134961;28;20057;-66
2022/03/19 02:44:45;;;;;;;14.85;8.02;;;9.50;67.60;;;;;;5135055;28;20020;-65
2022/03/19 02:47:11;;;;;;;14.27;8.27;;;9.50;67.60;;;;;;5134991;28;20030;-64
2022/03/19 02:49:37;;;;;;;15.30;8.60;;;9.50;67.90;;;;;;5134902;28;20050;-64
2022/03/19 02:52:03;;;;;;;16.55;8.40;;;9.50;67.80;;;;;;5134834;28;20024;-64
2022/03/19 02:54:31;;;;;;;18.45;8.63;;;9.50;68.10;;;;;;5134877;28;20051;-65
2022/03/19 02:56:58;;;;;;;14.38;8.52;;;9.50;68.10;;;;;;5134813;28;20031;-65
2022/03/19 02:59:26;;;;;;;18.65;9.05;;;9.50;68.40;;;;;;5134727;28;20023;-64
2022/03/19 03:01:54;;;;;;;17.85;8.93;;;9.40;68.60;;;;;;5134600;28;20046;-64
2022/03/19 03:04:21;;;;;;;22.02;8.88;;;9.40;68.50;;;;;;5134691;28;20530;-65
2022/03/19 03:06:51;;;;;;;21.63;8.88;;;9.50;68.50;;;;;;5134705;28;20076;-65
2022/03/19 03:09:23;;;;;;;15.70;8.73;;;9.40;68.40;;;;;;5134571;27;20020;-65
2022/03/19 03:11:49;;;;;;;14.52;8.05;;;9.40;68.20;;;;;;5133847;28;20052;-65
2022/03/19 03:14:15;;;;;;;13.35;8.13;;;9.40;68.20;;;;;;5134440;28;20027;-64
2022/03/19 03:16:42;;;;;;;15.13;8.02;;;9.30;68.20;;;;;;5134405;28;20080;-65
2022/03/19 03:19:10;;;;;;;16.67;8.77;;;9.30;68.30;;;;;;5134392;28;20035;-65
2022/03/19 03:21:36;;;;;;;15.57;8.02;;;9.30;68.30;;;;;;5134250;28;20118;-64
2022/03/19 03:24:03;;;;;;;14.25;8.23;;;9.20;68.10;;;;;;5134340;28;20024;-65
2022/03/19 03:26:30;;;;;;;15.65;8.27;;;9.20;68.00;;;;;;5134235;27;20016;-64
2022/03/19 03:28:56;;;;;;;13.77;8.30;;;9.30;67.80;;;;;;5134169;28;20016;-65
2022/03/19 03:31:23;;;;;;;12.43;7.43;;;9.20;67.50;;;;;;5134223;28;20024;-65
2022/03/19 03:33:48;;;;;;;17.52;7.85;;;9.20;67.50;;;;;;5134146;28;20023;-65
2022/03/19 03:36:14;;;;;;;14.95;7.50;;;9.20;68.30;;;;;;5134126;28;20027;-64
2022/03/19 03:38:40;;;;;;;13.02;7.65;;;9.10;67.60;;;;;;5134125;28;20024;-64
2022/03/19 03:41:06;;;;;;;17.45;7.25;;;9.10;67.60;;;;;;5132954;28;20024;-65
2022/03/19 03:43:32;;;;;;;13.32;7.57;;;9.10;67.40;;;;;;5134030;28;20506;-65
2022/03/19 03:45:58;;;;;;;12.98;7.55;;;9.20;67.40;;;;;;5133071;28;20030;-64
2022/03/19 03:48:24;;;;;;;15.90;7.63;;;9.20;67.30;;;;;;5133935;28;20028;-65
2022/03/19 03:50:55;;;;;;;15.68;7.63;;;9.20;67.40;;;;;;5133907;28;20024;-64
2022/03/19 03:53:23;;;;;;;14.85;8.00;;;9.10;67.30;;;;;;5134002;28;20053;-64
2022/03/19 03:55:49;;;;;;;15.85;7.15;;;9.10;67.40;;;;;;5133862;28;20024;-64
2022/03/19 03:58:15;;;;;;;15.00;7.50;;;9.10;67.50;;;;;;5133805;28;20049;-65
2022/03/19 04:00:41;;;;;;;18.95;7.20;;;9.00;67.50;;;;;;5133753;28;20099;-64
2022/03/19 04:03:07;;;;;;;11.38;6.45;;;8.90;67.00;;;;;;5133804;28;20024;-64
2022/03/19 04:05:35;;;;;;;13.93;7.15;;;8.80;67.00;;;;;;5133783;28;20039;-64
2022/03/19 04:08:02;;;;;;;14.32;7.72;;;8.80;67.00;;;;;;5133729;28;20077;-64
2022/03/19 04:10:28;;;;;;;14.90;7.65;;;8.70;67.20;;;;;;5133736;28;20046;-64
2022/03/19 04:12:54;;;;;;;19.52;7.95;;;8.60;67.80;;;;;;5132336;28;20052;-65
2022/03/19 04:15:20;;;;;;;13.70;7.80;;;8.50;69.00;;;;;;5133671;28;20028;-64
2022/03/19 04:17:45;;;;;;;13.38;7.70;;;8.60;68.20;;;;;;5133642;28;20076;-65
2022/03/19 04:20:12;;;;;;;14.80;7.63;;;8.60;68.10;;;;;;5133490;28;20044;-64
2022/03/19 04:22:44;;;;;;;12.73;7.68;;;8.60;68.30;;;;;;5134011;28;20024;-64
2022/03/19 04:25:14;;;;;;;16.25;7.85;;;8.50;68.40;;;;;;5137803;28;20106;-64
2022/03/19 04:27:44;;;;;;;12.27;7.30;;;8.40;68.60;;;;;;5137623;28;20039;-64
2022/03/19 04:30:14;;;;;;;15.60;8.10;;;8.40;68.60;;;;;;5137700;27;20024;-64
2022/03/19 04:32:48;;;;;;;14.98;7.85;;;8.40;68.80;;;;;;5137696;28;20028;-65
2022/03/19 04:38:09;;;;;;;16.55;7.70;;;8.40;69.10;;;;;;5137692;28;20473;-64
2022/03/19 04:40:36;;;;;;;16.73;7.90;;;8.40;69.40;;;;;;5136397;28;20020;-65
2022/03/19 04:43:02;;;;;;;17.40;8.32;;;8.40;69.40;;;;;;5136394;28;20031;-64
2022/03/19 04:45:28;;;;;;;13.95;7.85;;;8.40;69.60;;;;;;5137402;28;20026;-64
2022/03/19 04:47:53;;;;;;;18.08;9.35;;;8.40;69.70;;;;;;5136329;28;20051;-64
2022/03/19 04:50:20;;;;;;;14.88;8.43;;;8.50;69.50;;;;;;5137284;28;20030;-64
2022/03/19 04:52:47;;;;;;;16.80;7.68;;;8.50;69.50;;;;;;5137235;28;20035;-64
2022/03/19 04:55:13;;;;;;;16.85;8.80;;;8.60;69.40;;;;;;5137165;28;20022;-64
2022/03/19 04:57:39;;;;;;;15.73;8.30;;;8.50;69.50;;;;;;5137195;28;20027;-65
2022/03/19 05:00:08;;;;;;;17.15;8.52;;;8.50;69.70;;;;;;5137074;28;20075;-64
2022/03/19 05:02:34;;;;;;;17.10;9.20;;;8.50;69.80;;;;;;5136989;28;20032;-64
2022/03/19 05:05:00;;;;;;;15.52;8.10;;;8.50;70.10;;;;;;5137028;28;20026;-64
2022/03/19 05:07:26;;;;;;;15.15;8.48;;;8.50;70.20;;;;;;5136963;28;20012;-64
2022/03/19 05:12:41;;;;;;;24.60;9.02;;;8.40;70.90;;;;;;5136708;28;20057;-64
2022/03/19 05:15:11;;;;;;;17.42;8.65;;;8.40;71.30;;;;;;5136984;28;20045;-64
2022/03/19 05:17:38;;;;;;;15.57;8.50;;;8.30;71.50;;;;;;5136903;28;20031;-65
2022/03/19 05:20:04;;;;;;;16.30;8.35;;;8.30;71.40;;;;;;5136745;28;20096;-64
2022/03/19 05:22:30;;;;;;;13.52;7.85;;;8.40;71.10;;;;;;5136576;28;20024;-64
2022/03/19 05:24:59;;;;;;;17.25;8.45;;;8.50;70.70;;;;;;5136769;28;20031;-65
2022/03/19 05:27:25;;;;;;;16.88;8.75;;;8.40;70.50;;;;;;5136453;28;20079;-64
2022/03/19 05:29:51;;;;;;;17.98;8.75;;;8.40;70.50;;;;;;5136540;28;20055;-64
2022/03/19 05:32:18;;;;;;;15.57;8.82;;;8.40;70.30;;;;;;5136380;28;20043;-64
2022/03/19 05:34:44;;;;;;;18.20;8.82;;;8.50;70.30;;;;;;5134985;28;20059;-64
2022/03/19 05:37:10;;;;;;;18.45;7.82;;;8.50;70.30;;;;;;5136488;28;20079;-64
2022/03/19 05:39:36;;;;;;;17.15;8.75;;;8.40;71.00;;;;;;5135398;28;20032;-64
2022/03/19 05:42:04;;;;;;;14.23;8.63;;;8.50;69.90;;;;;;5136232;28;20031;-64
2022/03/19 05:44:29;;;;;;;16.05;8.38;;;8.40;70.20;;;;;;5136323;28;20416;-64
2022/03/19 05:46:58;;;;;;;16.10;8.70;;;8.40;70.30;;;;;;5136204;28;20024;-64
2022/03/19 05:49:24;;;;;;;13.20;7.97;;;8.30;70.50;;;;;;5136133;28;20016;-64
2022/03/19 05:51:50;;;;;;;13.90;8.07;;;8.20;70.40;;;;;;5136130;28;20072;-64
2022/03/19 05:54:15;;;;;;;18.45;8.63;;;8.20;70.60;;;;;;5136027;28;20023;-64
2022/03/19 05:56:41;;;;;;;18.33;8.73;;;8.30;70.70;;;;;;5135951;28;20040;-64
2022/03/19 05:59:06;;;;;;;17.65;8.80;;;8.20;70.80;;;;;;5135935;28;20016;-64
2022/03/19 06:01:32;;;;;;;17.10;8.00;;;8.20;71.80;;;;;;5135801;28;20388;-64
2022/03/19 06:03:59;;;;;;;16.65;8.77;;;8.20;70.90;;;;;;5135895;28;20030;-64
2022/03/19 06:06:28;;;;;;;14.02;8.57;;;8.20;70.90;;;;;;5135762;28;20028;-64
2022/03/19 06:08:54;;;;;;;19.27;8.60;;;8.30;70.80;;;;;;5135698;28;20035;-64
2022/03/19 06:11:20;;;;;;;20.08;8.65;;;8.30;70.70;;;;;;5134534;28;20074;-64
2022/03/19 06:13:46;;;;;;;18.25;8.27;;;8.30;70.80;;;;;;5135873;28;20495;-64
2022/03/19 06:16:12;;;;;;;19.23;9.02;;;8.20;70.70;;;;;;5135664;27;20031;-64
2022/03/19 06:18:38;;;;;;;20.70;8.95;;;8.20;70.90;;;;;;5135565;28;20027;-64
2022/03/19 06:21:04;;;;;;;15.27;8.27;;;8.20;71.10;;;;;;5134447;28;20028;-64
2022/03/19 06:23:30;;;;;;;18.05;8.40;;;8.20;71.20;;;;;;5135521;28;20040;-64
2022/03/19 06:25:56;;;;;;;15.63;8.35;;;8.20;72.20;;;;;;5134507;28;20023;-64
2022/03/19 06:28:22;;;;;;;20.20;8.68;;;8.20;71.50;;;;;;5135271;28;20049;-64
2022/03/19 06:30:48;;;;;;;16.70;8.20;;;8.20;71.60;;;;;;5135450;28;20035;-64
2022/03/19 06:33:14;;;;;;;21.45;8.90;;;8.20;71.60;;;;;;5135302;28;20051;-64
2022/03/19 06:38:26;;;;;;;20.33;8.35;;;8.30;71.90;;;;;;5135394;28;20057;-64
2022/03/19 06:40:52;;;;;;;19.52;9.45;;;8.30;72.00;;;;;;5135000;28;20031;-64
2022/03/19 06:43:18;;;;;;;16.38;8.80;;;8.30;72.00;;;;;;5135067;28;20079;-64
2022/03/19 06:45:44;;;;;;;16.98;8.73;;;8.30;72.10;;;;;;5134175;28;20034;-64
2022/03/19 06:48:09;;;;;;;20.75;10.00;;;8.40;72.10;;;;;;5135003;28;20028;-64
2022/03/19 06:50:35;;;;;;;19.77;9.25;;;8.40;71.90;;;;;;5134905;28;20026;-64
2022/03/19 06:53:05;;;;;;;18.83;9.88;;;8.40;72.00;;;;;;5134824;28;20046;-64
2022/03/19 06:55:31;;;;;;;25.52;9.13;;;8.50;72.60;;;;;;5134757;28;20047;-64
2022/03/19 06:57:56;;;;;;;19.10;9.57;;;8.50;72.40;;;;;;5134759;28;20028;-64
2022/03/19 07:00:22;;;;;;;18.27;9.68;;;8.50;72.50;;;;;;5134725;28;20059;-64
2022/03/19 07:02:51;;;;;;;16.13;8.82;;;8.50;72.80;;;;;;5134742;28;20030;-64
2022/03/19 07:05:27;;;;;;;17.88;8.38;;;8.50;72.70;;;;;;5134626;28;20020;-64
2022/03/19 07:07:54;;;;;;;16.95;8.85;;;8.60;72.90;;;;;;5134639;28;20031;-64
2022/03/19 07:10:20;;;;;;;15.30;8.82;;;8.60;72.80;;;;;;5134554;28;20020;-64
2022/03/19 07:12:47;;;;;;;13.68;7.70;;;8.70;73.10;;;;;;5134344;28;20039;-64
2022/03/19 07:15:21;;;;;;;18.00;8.57;;;8.70;73.00;;;;;;5134519;28;20545;-64
2022/03/19 07:17:50;;;;;;;17.02;8.07;;;8.70;73.10;;;;;;5134600;28;20020;-64
2022/03/19 07:20:15;;;;;;;16.20;7.22;;;8.70;73.60;;;;;;5134337;28;20018;-64
2022/03/19 07:22:50;;;;;;;19.73;7.65;;;8.80;73.60;;;;;;5133358;28;20024;-64
2022/03/19 07:25:17;;;;;;;17.30;7.28;;;8.80;73.50;;;;;;5134332;28;20020;-65
2022/03/19 07:27:43;;;;;;;14.65;6.47;;;8.80;73.60;;;;;;5133167;28;20015;-64
2022/03/19 07:30:09;;;;;;;13.68;7.05;;;8.80;73.10;;;;;;5134217;28;20027;-64
2022/03/19 07:32:35;;;;;;;17.40;7.85;;;8.80;73.00;;;;;;5134181;28;20028;-65
2022/03/19 07:35:01;;;;;;;13.60;7.07;;;8.90;73.10;;;;;;5134118;28;20036;-64
2022/03/19 07:37:30;;;;;;;13.40;6.63;;;8.90;73.00;;;;;;5133102;28;20027;-64
2022/03/19 07:39:56;;;;;;;12.50;6.10;;;9.00;72.80;;;;;;5116032;28;20031;-64
2022/03/19 07:42:22;;;;;;;18.70;6.72;;;9.00;72.70;;;;;;5133947;28;20023;-64
2022/03/19 07:44:48;;;;;;;17.38;6.82;;;9.00;72.60;;;;;;5134047;28;20030;-64
2022/03/19 07:47:14;;;;;;;16.08;6.50;;;9.10;72.30;;;;;;5134042;28;20075;-64
2022/03/19 07:49:40;;;;;;;12.65;5.82;;;9.20;71.80;;;;;;5133906;28;20020;-64
2022/03/19 07:52:09;;;;;;;11.10;6.10;;;9.20;72.60;;;;;;5132982;28;20028;-65
2022/03/19 07:54:36;;;;;;;11.75;5.78;;;9.20;71.30;;;;;;5132794;28;20019;-64
2022/03/19 07:57:03;;;;;;;15.55;6.32;;;9.30;71.20;;;;;;5133727;28;20087;-64
2022/03/19 07:59:28;;;;;;;13.10;6.10;;;9.40;71.20;;;;;;5133857;28;20019;-65
2022/03/19 08:01:54;;;;;;;13.38;6.38;;;9.40;70.80;;;;;;5133764;28;20038;-65
2022/03/19 08:04:20;;;;;;;16.85;6.22;;;9.50;70.40;;;;;;5133785;28;20024;-65
2022/03/19 08:06:46;;;;;;;15.82;6.20;;;9.50;70.10;;;;;;5133808;28;20030;-65
2022/03/19 08:09:12;;;;;;;12.00;6.22;;;9.60;69.90;;;;;;5133782;28;20031;-65
2022/03/19 08:11:39;;;;;;;12.85;6.05;;;9.60;70.00;;;;;;5133549;28;20079;-65
2022/03/19 08:14:05;;;;;;;13.15;5.20;;;9.70;69.40;;;;;;5132627;28;20015;-65
2022/03/19 08:16:31;;;;;;;11.75;5.45;;;9.80;69.10;;;;;;5133680;28;20102;-65
2022/03/19 08:18:57;;;;;;;9.70;5.25;;;9.80;68.90;;;;;;5133573;28;20028;-65
2022/03/19 08:21:22;;;;;;;14.85;5.53;;;9.90;69.30;;;;;;5132522;28;20032;-65
2022/03/19 08:23:48;;;;;;;13.02;5.50;;;10.00;68.90;;;;;;5133595;28;20092;-65
2022/03/19 08:26:14;;;;;;;16.08;6.05;;;10.10;68.20;;;;;;5133617;28;20016;-65
2022/03/19 08:28:40;;;;;;;15.95;5.53;;;10.20;67.80;;;;;;5132486;28;20325;-65
2022/03/19 08:31:06;;;;;;;12.20;5.78;;;10.30;67.60;;;;;;5132568;28;20092;-65
2022/03/19 08:33:31;;;;;;;13.07;5.50;;;10.30;67.80;;;;;;5133491;28;20027;-65
2022/03/19 08:35:57;;;;;;;12.68;5.45;;;10.40;67.50;;;;;;5133456;28;20028;-65
2022/03/19 08:41:07;;;;;;;10.55;5.28;;;10.60;66.90;;;;;;5133473;28;20051;-65
2022/03/19 08:43:33;;;;;;;11.05;4.95;;;10.70;64.60;;;;;;5133376;28;20027;-65
2022/03/19 08:45:59;;;;;;;16.02;5.00;;;10.60;65.30;;;;;;5132352;28;20095;-65
2022/03/19 08:48:25;;;;;;;11.57;5.28;;;10.70;65.10;;;;;;5133351;28;20020;-65
2022/03/19 08:50:51;;;;;;;9.13;5.18;;;10.70;65.90;;;;;;5133317;28;20122;-65
2022/03/19 08:53:17;;;;;;;13.50;5.00;;;10.80;65.10;;;;;;5133311;28;20024;-65
2022/03/19 08:55:43;;;;;;;10.25;5.30;;;10.80;65.20;;;;;;5133292;28;20051;-65
2022/03/19 08:58:09;;;;;;;11.38;4.50;;;10.90;64.80;;;;;;5133283;28;20053;-65
2022/03/19 09:00:37;;;;;;;13.88;5.35;;;11.00;64.20;;;;;;5133147;28;20032;-65
2022/03/19 09:03:02;;;;;;;11.82;5.50;;;11.20;63.60;;;;;;5133220;28;20016;-65
2022/03/19 09:05:28;;;;;;;10.90;4.72;;;11.20;62.60;;;;;;5133241;28;20042;-65
2022/03/19 09:07:54;;;;;;;7.80;4.78;;;11.20;63.50;;;;;;5132335;28;20031;-65
2022/03/19 09:10:19;;;;;;;11.30;5.88;;;11.30;63.00;;;;;;5136908;28;20024;-65
2022/03/19 09:12:46;;;;;;;9.25;4.72;;;11.40;62.50;;;;;;5136671;28;20122;-65
2022/03/19 09:15:13;;;;;;;12.73;5.13;;;11.50;62.20;;;;;;5136822;28;20030;-65
2022/03/19 09:17:39;;;;;;;11.65;4.68;;;11.60;62.00;;;;;;5136804;28;20075;-65
2022/03/19 09:20:05;;;;;;;10.75;4.40;;;11.60;61.20;;;;;;5136767;28;20020;-65
2022/03/19 09:22:31;;;;;;;11.93;4.90;;;11.70;61.00;;;;;;5135664;28;20035;-65
2022/03/19 09:24:57;;;;;;;9.38;4.00;;;11.80;60.80;;;;;;5136645;28;20023;-66
2022/03/19 09:27:23;;;;;;;9.95;4.25;;;11.80;60.00;;;;;;5136531;28;20054;-65
2022/03/19 09:29:49;;;;;;;12.20;4.40;;;11.90;60.00;;;;;;5136682;28;20040;-65
2022/03/19 09:32:17;;;;;;;10.43;5.07;;;11.90;60.00;;;;;;5136463;28;20035;-65
2022/03/19 09:34:47;;;;;;;11.10;4.22;;;12.10;59.70;;;;;;5136473;28;20030;-65
2022/03/19 09:37:16;;;;;;;8.68;4.68;;;12.20;57.90;;;;;;5136627;28;20051;-65
2022/03/19 09:39:41;;;;;;;11.77;4.43;;;12.20;57.80;;;;;;5136342;28;20080;-65
2022/03/19 09:42:12;;;;;;;9.68;4.30;;;12.20;57.20;;;;;;5136159;28;20055;-65
2022/03/19 09:44:39;;;;;;;9.05;4.32;;;12.30;56.90;;;;;;5136312;28;20084;-65
2022/03/19 09:47:05;;;;;;;12.82;4.10;;;12.30;55.80;;;;;;5136253;28;20047;-65
2022/03/19 09:49:31;;;;;;;8.38;4.30;;;12.40;56.40;;;;;;5118162;28;20027;-65
2022/03/19 09:52:01;;;;;;;10.40;4.28;;;12.50;56.60;;;;;;5136127;28;20494;-65
2022/03/19 09:54:27;;;;;;;11.52;4.70;;;12.60;55.30;;;;;;5135135;28;20038;-65
2022/03/19 09:56:52;;;;;;;12.35;4.15;;;12.70;54.70;;;;;;5135965;28;20036;-65
2022/03/19 09:59:19;;;;;;;7.85;3.50;;;12.80;54.50;;;;;;5136103;28;20083;-65
2022/03/19 10:01:48;;;;;;;7.20;3.67;;;12.80;53.40;;;;;;5135868;28;20042;-65
2022/03/19 10:04:17;;;;;;;8.95;3.75;;;12.80;52.60;;;;;;5135855;28;20460;-65
2022/03/19 10:09:44;;;;;;;11.57;4.82;;;12.90;52.10;;;;;;5135983;28;20050;-65
2022/03/19 10:12:37;;;;;;;9.98;3.72;;;13.10;52.10;;;;;;5135618;28;20118;-65
2022/03/19 10:15:09;;;;;;;8.13;3.47;;;13.20;50.90;;;;;;5131532;28;20044;-65
2022/03/19 10:17:37;;;;;;;9.05;3.70;;;13.30;51.00;;;;;;5135710;28;20024;-65
2022/03/19 10:20:06;;;;;;;8.43;3.78;;;13.40;49.10;;;;;;5135603;28;20034;-65
2022/03/19 10:22:32;;;;;;;10.07;3.50;;;13.40;47.30;;;;;;5135446;28;20039;-65
2022/03/19 10:25:07;;;;;;;9.82;3.30;;;13.50;46.00;;;;;;5135565;28;20034;-65
2022/03/19 10:27:38;;;;;;;5.95;2.75;;;13.50;46.00;;;;;;5135478;28;20023;-65
2022/03/19 10:30:09;;;;;;;7.28;2.72;;;13.50;44.30;;;;;;5135428;28;20020;-65
2022/03/19 10:32:39;;;;;;;5.47;2.40;;;13.50;45.70;;;;;;5135463;28;20023;-65
2022/03/19 10:35:05;;;;;;;8.55;3.20;;;13.50;43.40;;;;;;5135271;28;20020;-65
2022/03/19 10:37:39;;;;;;;9.02;3.10;;;13.50;42.50;;;;;;5135111;28;20024;-65
2022/03/19 10:40:07;;;;;;;9.13;3.17;;;13.60;42.10;;;;;;5117394;28;20031;-65
2022/03/19 10:42:40;;;;;;;8.13;2.90;;;13.70;42.50;;;;;;5135013;28;20020;-65
2022/03/19 10:45:08;;;;;;;6.38;2.40;;;13.80;42.20;;;;;;5135258;28;20034;-65
2022/03/19 10:47:47;;;;;;;6.05;2.38;;;13.90;41.70;;;;;;5135052;28;20026;-65
2022/03/19 10:50:21;;;;;;;4.38;2.30;;;14.00;39.20;;;;;;5134101;28;20087;-65
2022/03/19 10:52:48;;;;;;;5.85;2.20;;;14.00;37.90;;;;;;5134979;28;20019;-65
2022/03/19 10:55:14;;;;;;;5.45;2.22;;;14.00;35.10;;;;;;5134878;28;20040;-65
2022/03/19 10:57:41;;;;;;;4.40;2.03;;;14.00;34.00;;;;;;5133858;28;20027;-65
2022/03/19 11:00:07;;;;;;;4.05;1.70;;;14.00;33.90;;;;;;5134853;28;20089;-65
2022/03/19 11:02:34;;;;;;;5.22;2.15;;;14.10;34.50;;;;;;5134661;28;20032;-67
2022/03/19 11:05:01;;;;;;;7.07;2.15;;;14.10;35.50;;;;;;5134691;28;20016;-65
2022/03/19 11:07:32;;;;;;;6.00;2.20;;;14.20;34.80;;;;;;5134685;28;20037;-65
2022/03/19 11:09:59;;;;;;;5.15;2.20;;;14.20;34.30;;;;;;5134641;28;20046;-66
2022/03/19 11:12:28;;;;;;;4.57;2.08;;;14.20;34.10;;;;;;5134407;28;20056;-65
2022/03/19 11:14:56;;;;;;;4.70;2.00;;;14.20;34.70;;;;;;5133417;28;20016;-66
2022/03/19 11:17:36;;;;;;;5.68;2.05;;;14.20;35.00;;;;;;5134461;28;20027;-65
2022/03/19 11:20:11;;;;;;;6.38;1.80;;;14.40;34.60;;;;;;5133457;28;20035;-65
2022/03/19 11:22:39;;;;;;;4.28;1.98;;;14.40;33.10;;;;;;5134351;28;20031;-65
2022/03/19 11:25:22;;;;;;;4.78;1.75;;;14.40;33.30;;;;;;5134299;28;20028;-65
2022/03/19 11:27:50;;;;;;;6.60;1.83;;;14.40;32.20;;;;;;5134313;28;20016;-65
2022/03/19 11:30:22;;;;;;;5.60;1.77;;;14.40;31.00;;;;;;5134369;28;20046;-65
2022/03/19 11:33:07;;;;;;;;;;;14.50;29.70;;;;;;5134164;28;20059;-65
2022/03/19 11:35:35;;;;;;;4.80;1.77;;;14.50;31.30;;;;;;5134193;28;19946;-65
2022/03/19 11:38:02;;;;;;;5.47;1.60;;;14.50;31.30;;;;;;5134134;28;20015;-65
2022/03/19 11:40:35;;;;;;;3.72;1.45;;;14.60;31.90;;;;;;5132984;28;20026;-65
2022/03/19 11:43:01;;;;;;;;;;;14.70;31.90;;;;;;5134490;28;20030;-65
2022/03/19 11:45:38;;;;;;;3.75;1.85;;;14.70;31.40;;;;;;5133944;28;19971;-65
2022/03/19 11:48:04;;;;;;;3.60;1.60;;;14.80;32.10;;;;;;5134112;28;20117;-65
2022/03/19 11:50:31;;;;;;;3.35;1.45;;;14.90;32.30;;;;;;5133883;28;20027;-65
2022/03/19 11:52:56;;;;;;;3.08;1.50;;;14.90;30.00;;;;;;5133859;28;20020;-65
2022/03/19 11:55:29;;;;;;;6.13;1.50;;;15.00;29.20;;;;;;5133858;28;20126;-65
2022/03/19 11:58:00;;;;;;;3.90;1.48;;;15.00;29.00;;;;;;5134145;28;20084;-65
2022/03/19 12:00:31;;;;;;;4.28;1.52;;;15.00;28.00;;;;;;5133822;28;20016;-65
2022/03/19 12:03:09;;;;;;;6.03;1.70;;;15.00;28.80;;;;;;5133844;28;20011;-65
2022/03/19 12:05:56;;;;;;;4.93;1.52;;;15.10;28.90;;;;;;5133820;28;20024;-65
2022/03/19 12:08:23;;;;;;;4.22;1.60;;;15.10;28.50;;;;;;5133450;28;20032;-65
2022/03/19 12:10:59;;;;;;;5.32;1.50;;;15.10;29.10;;;;;;5133678;28;20043;-65
2022/03/19 12:13:28;;;;;;;3.38;1.38;;;15.20;28.30;;;;;;5133761;28;20031;-65
2022/03/19 12:16:04;;;;;;;3.47;1.30;;;15.20;29.40;;;;;;5132580;28;20062;-65
2022/03/19 12:18:42;;;;;;;2.63;1.48;;;15.30;29.80;;;;;;5133789;28;20016;-65
2022/03/19 12:21:11;;;;;;;5.20;1.42;;;15.50;30.40;;;;;;5133579;28;20031;-65
2022/03/19 12:23:49;;;;;;;4.57;1.58;;;15.50;29.70;;;;;;5133642;28;20024;-65
2022/03/19 12:26:16;;;;;;;4.47;2.00;;;15.50;29.90;;;;;;5133715;28;20018;-65
2022/03/19 12:28:43;;;;;;;3.75;1.92;;;15.60;30.70;;;;;;5132373;28;20023;-65
2022/03/19 12:31:13;;;;;;;5.57;1.85;;;15.60;30.00;;;;;;5133595;28;20087;-65
2022/03/19 12:33:39;;;;;;;4.65;1.95;;;15.70;30.00;;;;;;5132570;28;20097;-65
2022/03/19 12:36:15;;;;;;;4.78;1.50;;;15.70;29.20;;;;;;5133537;28;20020;-65
2022/03/19 12:38:42;;;;;;;2.30;0.90;;;15.80;28.90;;;;;;5133531;28;20100;-64
2022/03/19 12:41:26;;;;;;;2.25;1.10;;;15.90;27.00;;;;;;5133421;28;20020;-65
2022/03/19 12:43:52;;;;;;;4.10;1.10;;;15.80;26.40;;;;;;5135178;28;20179;-65
2022/03/19 12:46:32;;;;;;;4.82;1.20;;;15.70;26.10;;;;;;5137466;28;20019;-65
2022/03/19 12:49:02;;;;;;;2.85;1.27;;;15.80;28.10;;;;;;5137400;28;20080;-65
2022/03/19 12:51:29;;;;;;;4.38;1.17;;;15.80;27.70;;;;;;5137358;28;20024;-65
2022/03/19 12:53:55;;;;;;;3.33;1.23;;;15.90;28.10;;;;;;5137280;28;20385;-65
2022/03/19 12:56:25;;;;;;;3.63;1.40;;;16.00;28.50;;;;;;5137231;28;20032;-65
2022/03/19 12:58:54;;;;;;;4.78;1.60;;;16.00;28.70;;;;;;5137282;28;20031;-65
2022/03/19 13:01:29;;;;;;;3.53;1.38;;;16.20;28.60;;;;;;5137064;28;20027;-65
2022/03/19 13:04:01;;;;;;;6.90;2.25;;;16.20;28.90;;;;;;5137133;28;20024;-65